Time;durP1;ratioP1;P1;durP2;ratioP2;P2;SDS_P1;SDS_P2;PMS_P1;PMS_P2;Temp;Humidity;BMP_temperature;BMP_pressure;BME280_temperature;BME280_humidity;BME280_pressure;Samples;Min_cycle;Max_cycle;Signal;HPM_P1;HPM_P2
2022/12/19 00:02:04;;;;;;;0.40;0.40;;;0.90;90.60;;;;;;4951110;29;20053;-65
2022/12/19 00:04:32;;;;;;;0.75;0.75;;;0.90;90.60;;;;;;4951204;28;20035;-65
2022/12/19 00:06:58;;;;;;;0.10;0.10;;;0.90;90.70;;;;;;4950891;29;20074;-65
2022/12/19 00:09:24;;;;;;;0.10;0.10;;;1.00;90.60;;;;;;4947836;29;20070;-65
2022/12/19 00:11:49;;;;;;;2.15;2.00;;;0.90;90.60;;;;;;4951538;29;20043;-65
2022/12/19 00:14:16;;;;;;;0.30;0.30;;;1.00;90.50;;;;;;4950849;28;20403;-65
2022/12/19 00:16:41;;;;;;;0.45;0.45;;;0.90;90.50;;;;;;4951206;28;20035;-65
2022/12/19 00:19:08;;;;;;;7.43;2.58;;;0.90;90.70;;;;;;4950492;28;20408;-65
2022/12/19 00:21:34;;;;;;;0.00;0.00;;;1.00;90.70;;;;;;4950692;28;20047;-66
2022/12/19 00:24:00;;;;;;;1.05;1.05;;;0.90;90.70;;;;;;4951469;29;20594;-65
2022/12/19 00:26:31;;;;;;;0.00;0.00;;;1.00;90.80;;;;;;4950967;29;20440;-65
2022/12/19 00:29:03;;;;;;;0.85;0.85;;;1.10;90.80;;;;;;4950210;29;20039;-66
2022/12/19 00:31:32;;;;;;;0.20;0.20;;;1.00;90.80;;;;;;4951096;28;20067;-65
2022/12/19 00:33:58;;;;;;;0.10;0.10;;;1.10;90.80;;;;;;4951130;28;20051;-65
2022/12/19 00:36:28;;;;;;;0.10;0.10;;;1.10;90.80;;;;;;4951212;29;20043;-66
2022/12/19 00:38:56;;;;;;;0.10;0.10;;;1.10;90.80;;;;;;4951438;29;20389;-66
2022/12/19 00:41:28;;;;;;;0.57;0.57;;;1.10;90.80;;;;;;4950534;28;20035;-66
2022/12/19 00:43:58;;;;;;;0.22;0.22;;;1.10;90.80;;;;;;4950918;28;20049;-65
2022/12/19 00:46:24;;;;;;;0.22;0.22;;;1.10;90.80;;;;;;4951163;28;20057;-65
2022/12/19 00:48:50;;;;;;;0.10;0.10;;;1.10;90.80;;;;;;4949224;29;20130;-65
2022/12/19 00:51:19;;;;;;;1.00;1.00;;;1.10;90.90;;;;;;4949702;29;20122;-65
2022/12/19 00:53:46;;;;;;;0.00;0.00;;;1.10;90.90;;;;;;4950774;28;20050;-65
2022/12/19 00:56:18;;;;;;;0.10;0.10;;;1.10;91.00;;;;;;4951048;28;20135;-65
2022/12/19 00:58:44;;;;;;;0.50;0.50;;;1.20;91.00;;;;;;4950294;28;20035;-65
2022/12/19 01:01:14;;;;;;;2.53;2.17;;;1.10;90.90;;;;;;4950778;28;20058;-65
2022/12/19 01:03:40;;;;;;;0.10;0.10;;;1.20;91.00;;;;;;4950570;29;20039;-65
2022/12/19 01:06:07;;;;;;;0.10;0.10;;;1.10;91.10;;;;;;4950420;28;20051;-65
2022/12/19 01:08:32;;;;;;;1.30;1.25;;;1.20;91.10;;;;;;4950981;29;20043;-65
2022/12/19 01:10:58;;;;;;;0.98;0.90;;;1.20;91.10;;;;;;4950866;29;20046;-65
2022/12/19 01:13:26;;;;;;;0.00;0.00;;;1.20;91.20;;;;;;4950659;28;20050;-65
2022/12/19 01:15:52;;;;;;;0.38;0.38;;;1.20;91.20;;;;;;4950724;28;20047;-65
2022/12/19 01:18:17;;;;;;;0.03;0.03;;;1.20;91.10;;;;;;4949799;29;20036;-65
2022/12/19 01:20:46;;;;;;;0.43;0.43;;;1.20;91.20;;;;;;4948716;29;20087;-65
2022/12/19 01:23:13;;;;;;;0.25;0.25;;;1.30;91.20;;;;;;4950425;28;20058;-65
2022/12/19 01:25:39;;;;;;;0.10;0.10;;;1.30;91.10;;;;;;4948767;28;20117;-65
2022/12/19 01:28:05;;;;;;;0.10;0.10;;;1.20;91.20;;;;;;4950254;29;20501;-65
2022/12/19 01:30:31;;;;;;;0.10;0.10;;;1.20;91.20;;;;;;4951692;28;20066;-65
2022/12/19 01:32:58;;;;;;;0.40;0.40;;;1.30;91.20;;;;;;4953459;28;20059;-65
2022/12/19 01:35:25;;;;;;;0.10;0.10;;;1.30;91.10;;;;;;4954278;29;20055;-65
2022/12/19 01:37:51;;;;;;;0.20;0.20;;;1.30;91.10;;;;;;4953603;29;20039;-66
2022/12/19 01:40:18;;;;;;;0.17;0.17;;;1.30;91.20;;;;;;4953971;29;20043;-65
2022/12/19 01:42:44;;;;;;;0.10;0.10;;;1.30;91.30;;;;;;4954045;28;20134;-65
2022/12/19 01:45:09;;;;;;;0.10;0.10;;;1.30;91.30;;;;;;4954948;28;20134;-65
2022/12/19 01:47:53;;;;;;;1.98;1.85;;;1.20;91.50;;;;;;4954320;28;20039;-66
2022/12/19 01:50:48;;;;;;;3.08;2.70;;;1.20;91.50;;;;;;4952779;29;20039;-66
2022/12/19 01:53:13;;;;;;;0.45;0.45;;;1.20;91.60;;;;;;4946825;29;20118;-65
2022/12/19 01:55:42;;;;;;;2.20;1.67;;;1.20;91.70;;;;;;4952943;29;20051;-66
2022/12/19 01:58:09;;;;;;;0.40;0.40;;;1.20;91.90;;;;;;4952069;29;20043;-67
2022/12/19 02:00:35;;;;;;;0.10;0.10;;;1.20;92.00;;;;;;4953629;28;20043;-65
2022/12/19 02:03:09;;;;;;;0.10;0.10;;;1.30;92.00;;;;;;4953696;28;20102;-65
2022/12/19 02:05:35;;;;;;;0.10;0.10;;;1.20;92.10;;;;;;4953197;28;20047;-65
2022/12/19 02:08:02;;;;;;;0.10;0.10;;;1.20;92.20;;;;;;4953101;28;20039;-67
2022/12/19 02:10:28;;;;;;;0.20;0.20;;;1.30;92.30;;;;;;4952237;29;20118;-66
2022/12/19 02:12:54;;;;;;;0.13;0.13;;;1.40;92.20;;;;;;4953058;29;20054;-64
2022/12/19 02:15:20;;;;;;;8.35;4.07;;;1.40;92.20;;;;;;4952536;29;20039;-64
2022/12/19 02:18:08;;;;;;;0.00;0.00;;;1.40;92.30;;;;;;4944303;29;21090;-67
2022/12/19 02:20:34;;;;;;;2.63;1.17;;;1.40;92.30;;;;;;4952115;28;20110;-64
2022/12/19 02:23:18;;;;;;;1.95;0.95;;;1.40;92.60;;;;;;4953381;29;20054;-64
2022/12/19 02:25:58;;;;;;;0.63;0.63;;;1.40;92.70;;;;;;4952856;28;20063;-64
2022/12/19 02:28:33;;;;;;;0.10;0.10;;;1.40;92.70;;;;;;4953549;29;20044;-64
2022/12/19 02:31:23;;;;;;;0.10;0.10;;;1.50;92.70;;;;;;4952690;28;20059;-65
2022/12/19 02:34:09;;;;;;;0.10;0.10;;;1.50;92.70;;;;;;4952240;29;20134;-64
2022/12/19 02:36:39;;;;;;;0.03;0.03;;;1.50;92.90;;;;;;4952947;28;20138;-64
2022/12/19 02:39:14;;;;;;;0.10;0.10;;;1.50;93.00;;;;;;4952895;28;20513;-63
2022/12/19 02:41:55;;;;;;;0.15;0.15;;;1.50;93.10;;;;;;4952907;28;20051;-65
2022/12/19 02:44:31;;;;;;;0.10;0.10;;;1.60;93.10;;;;;;4951668;29;20134;-64
2022/12/19 02:46:59;;;;;;;0.00;0.00;;;1.60;93.20;;;;;;4952592;29;20058;-64
2022/12/19 02:49:26;;;;;;;0.10;0.10;;;1.60;93.20;;;;;;4952327;29;20051;-64
2022/12/19 02:51:52;;;;;;;0.52;0.52;;;1.60;93.30;;;;;;4953019;28;20105;-64
2022/12/19 02:54:18;;;;;;;0.40;0.40;;;1.50;93.30;;;;;;4952663;28;20078;-64
2022/12/19 02:56:50;;;;;;;0.05;0.05;;;1.60;93.40;;;;;;4953178;28;20094;-64
2022/12/19 02:59:42;;;;;;;0.50;0.50;;;1.60;93.40;;;;;;4934848;29;20047;-65
2022/12/19 03:02:22;;;;;;;0.10;0.10;;;1.60;93.50;;;;;;4948762;29;20059;-65
2022/12/19 03:05:01;;;;;;;3.20;2.20;;;1.60;93.40;;;;;;4952924;29;20547;-65
2022/12/19 03:07:32;;;;;;;0.10;0.10;;;1.60;93.50;;;;;;4951166;29;20115;-65
2022/12/19 03:10:13;;;;;;;0.08;0.08;;;1.70;93.50;;;;;;4951966;28;20542;-65
2022/12/19 03:12:48;;;;;;;0.00;0.00;;;1.60;93.50;;;;;;4933196;29;20091;-65
2022/12/19 03:15:15;;;;;;;0.00;0.00;;;1.60;93.60;;;;;;4933624;29;20059;-65
2022/12/19 03:17:41;;;;;;;0.10;0.10;;;1.70;93.70;;;;;;4950767;29;21651;-65
2022/12/19 03:20:36;;;;;;;0.10;0.10;;;1.70;93.60;;;;;;4952124;29;20051;-64
2022/12/19 03:23:02;;;;;;;0.00;0.00;;;1.70;93.60;;;;;;4951261;28;20047;-65
2022/12/19 03:25:29;;;;;;;1.08;0.65;;;1.70;93.60;;;;;;4951864;29;20090;-66
2022/12/19 03:28:01;;;;;;;0.20;0.20;;;1.70;93.50;;;;;;4951878;28;20044;-64
2022/12/19 03:30:30;;;;;;;2.83;0.82;;;1.80;93.50;;;;;;4951706;28;20870;-64
2022/12/19 03:32:56;;;;;;;0.20;0.20;;;1.80;93.60;;;;;;4951877;29;20047;-64
2022/12/19 03:35:30;;;;;;;0.10;0.10;;;1.90;93.50;;;;;;4950913;29;20472;-64
2022/12/19 03:37:59;;;;;;;0.20;0.20;;;1.90;93.50;;;;;;4951546;29;20042;-64
2022/12/19 03:40:27;;;;;;;0.65;0.65;;;1.90;93.50;;;;;;4935457;29;20051;-65
2022/12/19 03:43:10;;;;;;;0.10;0.10;;;1.90;93.50;;;;;;4937635;28;20073;-65
2022/12/19 03:45:42;;;;;;;3.80;0.93;;;1.90;93.50;;;;;;4934566;29;20046;-65
2022/12/19 03:48:10;;;;;;;;;;;1.90;93.60;;;;;;4951937;28;20050;-64
2022/12/19 03:51:00;;;;;;;1.05;1.05;;;1.90;93.60;;;;;;4950692;29;19922;-65
2022/12/19 03:53:40;;;;;;;0.10;0.10;;;1.90;93.70;;;;;;4950591;28;20062;-64
2022/12/19 03:56:44;;;;;;;0.05;0.05;;;1.90;93.70;;;;;;4949997;29;20113;-64
2022/12/19 03:59:28;;;;;;;1.30;1.20;;;1.90;93.70;;;;;;4950328;28;20102;-64
2022/12/19 04:01:55;;;;;;;0.10;0.10;;;2.00;93.60;;;;;;4951529;28;20058;-64
2022/12/19 04:04:24;;;;;;;1.20;1.10;;;2.00;93.60;;;;;;4951729;28;20544;-64
2022/12/19 04:06:51;;;;;;;0.47;0.47;;;2.00;93.60;;;;;;4949674;28;20043;-65
2022/12/19 04:09:20;;;;;;;1.48;1.38;;;2.10;93.70;;;;;;4951155;29;20522;-64
2022/12/19 04:11:51;;;;;;;0.00;0.00;;;2.00;93.70;;;;;;4951209;29;20446;-65
2022/12/19 04:14:27;;;;;;;0.10;0.10;;;2.10;93.70;;;;;;4951420;29;20567;-66
2022/12/19 04:17:13;;;;;;;0.00;0.00;;;2.10;93.70;;;;;;4951356;28;20512;-64
2022/12/19 04:19:48;;;;;;;0.10;0.10;;;2.10;93.70;;;;;;4950416;29;20146;-64
2022/12/19 04:22:25;;;;;;;0.00;0.00;;;2.10;93.80;;;;;;4950112;29;20059;-65
2022/12/19 04:24:53;;;;;;;0.75;0.75;;;2.20;93.80;;;;;;4951557;28;20142;-66
2022/12/19 04:27:20;;;;;;;0.30;0.30;;;2.20;93.90;;;;;;4951010;29;20047;-64
2022/12/19 04:29:47;;;;;;;0.30;0.30;;;2.20;93.80;;;;;;4950586;29;20631;-65
2022/12/19 04:32:13;;;;;;;1.25;1.13;;;2.30;93.80;;;;;;4951248;29;20527;-65
2022/12/19 04:34:39;;;;;;;0.13;0.13;;;2.20;93.80;;;;;;4950674;29;20039;-65
2022/12/19 04:37:05;;;;;;;0.20;0.20;;;2.30;93.80;;;;;;4951005;29;20455;-65
2022/12/19 04:39:31;;;;;;;0.08;0.08;;;2.30;93.80;;;;;;4950615;28;20126;-65
2022/12/19 04:41:57;;;;;;;0.00;0.00;;;2.30;93.90;;;;;;4950636;29;20083;-64
2022/12/19 04:44:22;;;;;;;0.88;0.65;;;2.40;93.90;;;;;;4951290;29;20133;-65
2022/12/19 04:46:48;;;;;;;0.77;0.77;;;2.40;93.90;;;;;;4951094;29;20126;-64
2022/12/19 04:49:13;;;;;;;0.45;0.45;;;2.40;93.90;;;;;;4950670;29;20054;-65
2022/12/19 04:51:39;;;;;;;0.00;0.00;;;2.40;93.90;;;;;;4950394;29;20110;-64
2022/12/19 04:54:05;;;;;;;1.17;1.08;;;2.50;93.90;;;;;;4951096;29;20405;-65
2022/12/19 04:56:30;;;;;;;0.22;0.22;;;2.50;93.90;;;;;;4951099;29;20459;-65
2022/12/19 04:59:00;;;;;;;0.10;0.10;;;2.50;93.90;;;;;;4950543;29;20043;-64
2022/12/19 05:01:25;;;;;;;0.10;0.10;;;2.50;93.90;;;;;;4950581;28;20050;-65
2022/12/19 05:03:51;;;;;;;0.30;0.30;;;2.60;93.90;;;;;;4951307;28;20039;-64
2022/12/19 05:06:18;;;;;;;1.55;1.15;;;2.60;93.90;;;;;;4954254;29;20052;-65
2022/12/19 05:08:43;;;;;;;3.03;0.90;;;2.60;93.80;;;;;;4954343;28;20070;-65
2022/12/19 05:11:12;;;;;;;0.00;0.00;;;2.60;93.80;;;;;;4954548;29;20200;-68
2022/12/19 05:13:38;;;;;;;0.10;0.10;;;2.70;93.80;;;;;;4954790;29;20102;-65
2022/12/19 05:16:09;;;;;;;0.13;0.13;;;2.70;93.80;;;;;;4954734;29;20047;-65
2022/12/19 05:18:36;;;;;;;0.20;0.20;;;2.80;93.80;;;;;;4953963;28;20050;-66
2022/12/19 05:21:02;;;;;;;0.75;0.75;;;2.80;93.80;;;;;;4953920;29;20070;-64
2022/12/19 05:23:28;;;;;;;0.00;0.00;;;2.80;93.90;;;;;;4954400;28;20061;-64
2022/12/19 05:25:59;;;;;;;0.45;0.45;;;2.70;93.90;;;;;;4954796;28;20039;-65
2022/12/19 05:28:26;;;;;;;0.10;0.10;;;2.80;94.00;;;;;;4954166;29;20047;-65
2022/12/19 05:31:00;;;;;;;0.00;0.00;;;2.80;94.00;;;;;;4953690;29;20059;-65
2022/12/19 05:33:27;;;;;;;0.05;0.05;;;2.80;94.00;;;;;;4935596;29;20048;-66
2022/12/19 05:35:52;;;;;;;0.00;0.00;;;2.90;94.00;;;;;;4944502;29;20492;-65
2022/12/19 05:38:18;;;;;;;0.00;0.00;;;2.90;94.00;;;;;;4953757;29;20039;-65
2022/12/19 05:40:43;;;;;;;0.25;0.25;;;2.90;94.00;;;;;;4951268;28;20467;-64
2022/12/19 05:43:09;;;;;;;0.20;0.20;;;2.90;94.00;;;;;;4953788;29;20046;-65
2022/12/19 05:45:35;;;;;;;0.30;0.30;;;2.90;94.00;;;;;;4954363;29;20569;-65
2022/12/19 05:48:00;;;;;;;0.25;0.25;;;2.90;94.00;;;;;;4953981;29;20043;-66
2022/12/19 05:50:26;;;;;;;1.13;1.13;;;2.90;93.90;;;;;;4953233;28;20069;-65
2022/12/19 05:52:51;;;;;;;0.00;0.00;;;2.90;94.00;;;;;;4953664;29;20386;-66
2022/12/19 05:55:17;;;;;;;0.08;0.08;;;2.90;94.00;;;;;;4953818;29;20046;-65
2022/12/19 05:57:42;;;;;;;0.30;0.30;;;3.00;94.00;;;;;;4952800;29;20710;-65
2022/12/19 06:00:09;;;;;;;0.30;0.30;;;3.00;94.00;;;;;;4952886;29;20566;-65
2022/12/19 06:02:34;;;;;;;0.10;0.10;;;3.00;94.20;;;;;;4951712;29;20058;-65
2022/12/19 06:05:00;;;;;;;0.10;0.10;;;3.00;94.20;;;;;;4953780;29;20035;-65
2022/12/19 06:07:25;;;;;;;1.80;0.73;;;3.00;94.20;;;;;;4953142;29;20043;-66
2022/12/19 06:09:51;;;;;;;0.00;0.00;;;3.00;94.30;;;;;;4947618;29;20475;-66
2022/12/19 06:12:16;;;;;;;11.50;1.55;;;3.00;94.20;;;;;;4956891;28;20058;-66
2022/12/19 06:14:42;;;;;;;0.00;0.00;;;3.00;94.30;;;;;;4949933;28;20143;-65
2022/12/19 06:17:08;;;;;;;0.20;0.20;;;3.10;94.30;;;;;;4952486;28;22068;-64
2022/12/19 06:19:33;;;;;;;0.00;0.00;;;3.10;94.30;;;;;;4954510;28;20177;-66
2022/12/19 06:21:59;;;;;;;0.10;0.10;;;3.20;94.30;;;;;;4953205;29;20047;-65
2022/12/19 06:24:24;;;;;;;0.00;0.00;;;3.20;94.20;;;;;;4949413;29;20054;-66
2022/12/19 06:26:50;;;;;;;0.00;0.00;;;3.20;94.20;;;;;;4951189;28;20488;-65
2022/12/19 06:29:16;;;;;;;0.00;0.00;;;3.20;94.20;;;;;;4952622;28;20592;-65
2022/12/19 06:31:42;;;;;;;0.28;0.28;;;3.30;94.10;;;;;;4951896;29;20079;-65
2022/12/19 06:34:09;;;;;;;16.65;0.98;;;3.30;94.30;;;;;;4952022;28;20110;-67
2022/12/19 06:36:36;;;;;;;0.60;0.60;;;3.30;94.30;;;;;;4951371;29;20051;-65
2022/12/19 06:39:02;;;;;;;0.30;0.30;;;3.30;94.30;;;;;;4951185;28;20141;-66
2022/12/19 06:44:14;;;;;;;0.00;0.00;;;3.30;94.50;;;;;;4953012;28;20059;-64
2022/12/19 06:46:41;;;;;;;0.30;0.30;;;3.40;94.50;;;;;;4951629;28;20471;-67
2022/12/19 06:49:07;;;;;;;0.10;0.10;;;3.40;94.50;;;;;;4952469;28;20771;-67
2022/12/19 06:51:33;;;;;;;0.00;0.00;;;3.40;94.60;;;;;;4953273;28;20051;-65
2022/12/19 06:53:59;;;;;;;0.22;0.22;;;3.40;94.60;;;;;;4951026;28;20424;-65
2022/12/19 06:56:24;;;;;;;0.17;0.17;;;3.50;94.70;;;;;;4952275;28;20043;-65
2022/12/19 06:58:50;;;;;;;0.00;0.00;;;3.60;94.60;;;;;;4952114;28;20552;-65
2022/12/19 07:01:24;;;;;;;0.28;0.28;;;3.60;94.50;;;;;;4951966;29;20046;-66
2022/12/19 07:03:50;;;;;;;0.10;0.10;;;3.60;94.70;;;;;;4950755;28;20051;-66
2022/12/19 07:06:16;;;;;;;0.00;0.00;;;3.60;94.70;;;;;;4952857;28;20520;-65
2022/12/19 07:08:41;;;;;;;0.00;0.00;;;3.60;94.70;;;;;;4951974;28;20069;-66
2022/12/19 07:11:07;;;;;;;0.65;0.65;;;3.70;94.70;;;;;;4951456;29;20055;-66
2022/12/19 07:13:32;;;;;;;0.10;0.10;;;3.80;94.60;;;;;;4950871;29;20066;-64
2022/12/19 07:16:02;;;;;;;0.10;0.10;;;3.80;94.70;;;;;;4951457;28;20138;-65
2022/12/19 07:18:30;;;;;;;0.75;0.45;;;3.90;94.60;;;;;;4951381;29;20035;-66
2022/12/19 07:20:55;;;;;;;0.10;0.10;;;4.00;94.80;;;;;;4951373;28;20043;-65
2022/12/19 07:23:22;;;;;;;0.65;0.45;;;4.00;94.70;;;;;;4951545;28;20042;-64
2022/12/19 07:25:47;;;;;;;0.75;0.75;;;4.10;94.60;;;;;;4950522;29;20102;-66
2022/12/19 07:28:13;;;;;;;0.00;0.00;;;4.20;94.70;;;;;;4951467;28;20506;-65
2022/12/19 07:30:39;;;;;;;0.03;0.03;;;4.20;94.90;;;;;;4951936;28;20066;-65
2022/12/19 07:33:04;;;;;;;0.20;0.20;;;4.20;94.90;;;;;;4951932;29;20047;-65
2022/12/19 07:35:30;;;;;;;0.00;0.00;;;4.30;94.90;;;;;;4949617;28;20412;-64
2022/12/19 07:38:06;;;;;;;0.03;0.03;;;4.40;95.10;;;;;;4951339;28;20039;-63
2022/12/19 07:40:32;;;;;;;0.10;0.10;;;4.40;95.00;;;;;;4948122;29;20097;-64
2022/12/19 07:42:59;;;;;;;0.00;0.00;;;4.60;95.00;;;;;;4950797;28;20098;-64
2022/12/19 07:45:25;;;;;;;0.00;0.00;;;4.60;94.90;;;;;;4951063;29;20093;-65
2022/12/19 07:47:51;;;;;;;0.10;0.10;;;4.60;94.80;;;;;;4951735;29;20495;-63
2022/12/19 07:50:17;;;;;;;0.00;0.00;;;4.70;94.90;;;;;;4951520;29;20043;-64
2022/12/19 07:52:43;;;;;;;0.00;0.00;;;4.80;95.10;;;;;;4951336;29;20839;-64
2022/12/19 07:55:09;;;;;;;0.00;0.00;;;4.80;95.00;;;;;;4949967;29;20079;-63
2022/12/19 07:57:35;;;;;;;0.35;0.35;;;4.80;95.00;;;;;;4936010;28;20162;-64
2022/12/19 08:00:00;;;;;;;0.10;0.10;;;4.90;95.10;;;;;;4943578;28;20150;-63
2022/12/19 08:02:26;;;;;;;0.00;0.00;;;4.90;95.10;;;;;;4945190;29;20035;-63
2022/12/19 08:04:52;;;;;;;0.00;0.00;;;4.90;95.00;;;;;;4946317;29;20039;-62
2022/12/19 08:07:17;;;;;;;0.55;0.55;;;5.00;95.00;;;;;;4946250;29;20344;-64
2022/12/19 08:09:43;;;;;;;0.00;0.00;;;5.00;95.00;;;;;;4948424;28;20061;-63
2022/12/19 08:12:09;;;;;;;0.08;0.08;;;5.10;95.00;;;;;;4948844;28;20058;-63
2022/12/19 08:14:34;;;;;;;0.00;0.00;;;5.10;94.90;;;;;;4948883;29;20043;-63
2022/12/19 08:17:00;;;;;;;0.05;0.05;;;5.10;94.90;;;;;;4949500;29;20556;-64
2022/12/19 08:19:26;;;;;;;0.00;0.00;;;5.10;94.90;;;;;;4947221;29;20432;-63
2022/12/19 08:21:51;;;;;;;0.10;0.10;;;5.20;95.00;;;;;;4947819;29;20082;-64
2022/12/19 08:24:17;;;;;;;0.05;0.05;;;5.20;94.90;;;;;;4948805;29;20047;-63
2022/12/19 08:26:43;;;;;;;0.10;0.10;;;5.20;94.80;;;;;;4946669;28;20040;-64
2022/12/19 08:29:09;;;;;;;0.00;0.00;;;5.30;94.90;;;;;;4949328;28;20047;-63
2022/12/19 08:31:35;;;;;;;0.00;0.00;;;5.20;94.80;;;;;;4947989;28;20090;-62
2022/12/19 08:34:00;;;;;;;0.40;0.40;;;5.30;94.80;;;;;;4947977;28;20066;-63
2022/12/19 08:36:26;;;;;;;0.10;0.10;;;5.30;94.80;;;;;;4947496;29;20086;-63
2022/12/19 08:38:52;;;;;;;0.00;0.00;;;5.30;94.90;;;;;;4946202;28;20035;-62
2022/12/19 08:41:17;;;;;;;0.00;0.00;;;5.30;94.90;;;;;;4945004;29;20441;-63
2022/12/19 08:43:48;;;;;;;0.00;0.00;;;5.40;95.00;;;;;;4947474;28;20047;-63
2022/12/19 08:46:16;;;;;;;0.00;0.00;;;5.40;95.00;;;;;;4948317;28;20067;-63
2022/12/19 08:48:42;;;;;;;0.00;0.00;;;5.40;94.90;;;;;;4949125;28;20102;-63
2022/12/19 08:51:09;;;;;;;0.00;0.00;;;5.50;94.90;;;;;;4946242;28;20051;-63
2022/12/19 08:53:38;;;;;;;0.00;0.00;;;5.40;94.90;;;;;;4947850;29;20075;-64
2022/12/19 08:56:06;;;;;;;0.00;0.00;;;5.50;94.90;;;;;;4940071;28;20047;-64
2022/12/19 08:58:32;;;;;;;0.00;0.00;;;5.50;94.90;;;;;;4942090;28;20083;-64
2022/12/19 09:01:04;;;;;;;0.00;0.00;;;5.50;94.90;;;;;;4945532;28;20645;-64
2022/12/19 09:03:30;;;;;;;0.10;0.10;;;5.50;94.90;;;;;;4941889;28;21737;-64
2022/12/19 09:05:56;;;;;;;0.10;0.10;;;5.60;95.00;;;;;;4944672;29;20872;-64
2022/12/19 09:08:22;;;;;;;0.03;0.03;;;5.60;95.00;;;;;;4947419;28;20122;-64
2022/12/19 09:10:48;;;;;;;0.00;0.00;;;5.60;95.00;;;;;;4943996;28;20044;-63
2022/12/19 09:13:13;;;;;;;0.00;0.00;;;5.60;94.90;;;;;;4948106;29;20070;-63
2022/12/19 09:15:39;;;;;;;0.00;0.00;;;5.60;95.00;;;;;;4948348;28;20039;-63
2022/12/19 09:18:05;;;;;;;0.05;0.05;;;5.70;95.40;;;;;;4944755;28;20058;-64
2022/12/19 09:20:31;;;;;;;0.08;0.08;;;5.80;95.10;;;;;;4941546;28;20078;-65
2022/12/19 09:22:57;;;;;;;0.00;0.00;;;5.80;95.00;;;;;;4944938;29;20244;-63
2022/12/19 09:25:22;;;;;;;0.52;0.52;;;5.80;95.00;;;;;;4945835;28;20133;-62
2022/12/19 09:27:48;;;;;;;0.10;0.10;;;5.80;95.00;;;;;;4930652;29;20044;-64
2022/12/19 09:30:14;;;;;;;0.00;0.00;;;5.80;95.10;;;;;;4948225;29;20062;-64
2022/12/19 09:32:40;;;;;;;0.13;0.13;;;5.90;95.20;;;;;;4946518;29;20846;-64
2022/12/19 09:35:06;;;;;;;0.00;0.00;;;5.90;95.20;;;;;;4944438;28;20043;-64
2022/12/19 09:37:31;;;;;;;1.45;0.63;;;6.00;95.20;;;;;;4945605;29;20122;-64
2022/12/19 09:39:57;;;;;;;0.00;0.00;;;6.00;95.30;;;;;;4945261;29;20087;-63
2022/12/19 09:43:05;;;;;;;0.00;0.00;;;6.00;95.30;;;;;;4947080;28;20502;-64
2022/12/19 09:45:42;;;;;;;0.00;0.00;;;6.10;95.30;;;;;;4939676;29;20455;-64
2022/12/19 09:48:12;;;;;;;0.00;0.00;;;6.10;95.40;;;;;;4946059;29;20046;-64
2022/12/19 09:51:00;;;;;;;0.55;0.32;;;6.10;95.30;;;;;;4939067;29;20050;-64
2022/12/19 09:53:39;;;;;;;0.08;0.08;;;6.20;95.50;;;;;;4948950;29;20130;-65
2022/12/19 09:56:13;;;;;;;0.00;0.00;;;6.30;95.50;;;;;;4950186;29;20058;-65
2022/12/19 09:58:48;;;;;;;0.00;0.00;;;6.30;95.50;;;;;;4949217;29;20054;-64
2022/12/19 10:01:22;;;;;;;0.00;0.00;;;6.40;95.60;;;;;;4950561;29;20035;-65
2022/12/19 10:04:09;;;;;;;0.03;0.03;;;6.60;95.50;;;;;;4950480;28;20079;-65
2022/12/19 10:06:35;;;;;;;0.00;0.00;;;6.60;95.60;;;;;;4965753;28;20050;-64
2022/12/19 10:09:01;;;;;;;0.00;0.00;;;6.60;95.60;;;;;;4951448;29;20043;-65
2022/12/19 10:11:46;;;;;;;0.45;0.45;;;6.60;95.60;;;;;;4950717;29;20047;-65
2022/12/19 10:14:38;;;;;;;0.10;0.10;;;6.70;95.80;;;;;;4948838;29;20511;-65
2022/12/19 10:17:19;;;;;;;0.00;0.00;;;6.70;95.70;;;;;;4947416;28;20059;-64
2022/12/19 10:19:56;;;;;;;0.00;0.00;;;6.80;95.70;;;;;;4949914;28;20571;-64
2022/12/19 10:22:49;;;;;;;0.10;0.10;;;6.90;95.70;;;;;;4949049;29;20777;-65
2022/12/19 10:25:29;;;;;;;0.13;0.13;;;6.90;95.70;;;;;;4950060;28;20405;-64
2022/12/19 10:28:10;;;;;;;0.00;0.00;;;7.00;95.80;;;;;;4965335;28;20051;-64
2022/12/19 10:30:43;;;;;;;0.00;0.00;;;7.00;95.70;;;;;;4950477;29;20515;-64
2022/12/19 10:33:25;;;;;;;0.00;0.00;;;7.10;95.80;;;;;;4950505;29;20420;-64
2022/12/19 10:35:57;;;;;;;0.10;0.10;;;7.10;95.80;;;;;;4934825;29;20135;-64
2022/12/19 10:38:26;;;;;;;0.00;0.00;;;7.20;95.70;;;;;;4948121;28;20047;-65
2022/12/19 10:41:05;;;;;;;0.25;0.25;;;7.30;95.70;;;;;;4947033;29;20488;-65
2022/12/19 10:44:01;;;;;;;0.00;0.00;;;7.30;95.70;;;;;;4943788;28;20069;-65
2022/12/19 10:46:40;;;;;;;1.50;1.40;;;7.40;95.60;;;;;;4947351;28;20058;-65
2022/12/19 10:49:24;;;;;;;0.00;0.00;;;7.40;95.60;;;;;;4949155;29;20415;-65
2022/12/19 10:52:04;;;;;;;0.10;0.10;;;7.50;95.60;;;;;;4950566;28;20616;-65
2022/12/19 10:54:36;;;;;;;1.55;1.17;;;7.50;95.60;;;;;;4949630;29;20050;-65
2022/12/19 10:57:20;;;;;;;0.00;0.00;;;7.50;95.60;;;;;;4949125;28;20531;-64
2022/12/19 11:00:16;;;;;;;0.38;0.38;;;7.60;95.50;;;;;;4947370;29;20099;-64
2022/12/19 11:02:45;;;;;;;0.00;0.00;;;7.60;95.50;;;;;;4949483;28;20043;-65
2022/12/19 11:05:30;;;;;;;0.00;0.00;;;7.60;95.50;;;;;;4945539;29;20066;-64
2022/12/19 11:08:00;;;;;;;0.00;0.00;;;7.60;95.50;;;;;;4948944;29;20047;-65
2022/12/19 11:10:46;;;;;;;0.00;0.00;;;7.60;95.50;;;;;;4949167;29;20141;-66
2022/12/19 11:13:25;;;;;;;0.90;0.90;;;7.60;95.50;;;;;;4949886;28;20046;-65
2022/12/19 11:15:56;;;;;;;0.55;0.55;;;7.70;95.50;;;;;;4946351;28;20179;-65
2022/12/19 11:18:23;;;;;;;0.00;0.00;;;7.70;95.50;;;;;;4948957;29;20381;-65
2022/12/19 11:20:55;;;;;;;0.00;0.00;;;7.80;95.50;;;;;;4949582;29;20047;-64
2022/12/19 11:23:23;;;;;;;0.00;0.00;;;7.80;95.40;;;;;;4947270;29;20097;-65
2022/12/19 11:25:58;;;;;;;0.00;0.00;;;7.80;95.40;;;;;;4948720;28;20055;-65
2022/12/19 11:28:34;;;;;;;0.00;0.00;;;7.80;95.40;;;;;;4948716;29;20137;-65
2022/12/19 11:31:22;;;;;;;0.03;0.03;;;7.90;95.30;;;;;;4949918;28;20518;-65
2022/12/19 11:33:54;;;;;;;0.00;0.00;;;7.90;95.30;;;;;;4946218;29;20061;-65
2022/12/19 11:37:02;;;;;;;0.00;0.00;;;7.90;95.30;;;;;;4948963;28;20047;-64
2022/12/19 11:39:35;;;;;;;0.00;0.00;;;8.00;95.40;;;;;;4920214;28;20047;-65
2022/12/19 11:42:20;;;;;;;0.00;0.00;;;8.00;95.20;;;;;;4948384;28;20086;-64
2022/12/19 11:45:22;;;;;;;0.00;0.00;;;8.00;95.10;;;;;;4944123;28;20489;-64
2022/12/19 11:48:04;;;;;;;0.03;0.03;;;8.10;95.10;;;;;;4947541;29;20534;-64
2022/12/19 11:50:34;;;;;;;0.00;0.00;;;8.00;95.00;;;;;;4946620;29;20047;-64
2022/12/19 11:53:16;;;;;;;0.10;0.10;;;8.10;94.80;;;;;;4947309;28;20047;-65
2022/12/19 11:55:53;;;;;;;0.00;0.00;;;8.10;94.70;;;;;;4947454;29;20058;-65
2022/12/19 11:58:21;;;;;;;0.00;0.00;;;8.10;94.70;;;;;;4947783;28;20403;-65
2022/12/19 12:01:08;;;;;;;0.00;0.00;;;8.00;94.60;;;;;;4945811;29;20408;-65
2022/12/19 12:03:52;;;;;;;0.10;0.10;;;8.00;94.60;;;;;;4946955;29;20055;-65
2022/12/19 12:06:18;;;;;;;0.10;0.10;;;8.10;94.60;;;;;;4948715;29;20043;-65
2022/12/19 12:08:49;;;;;;;0.00;0.00;;;8.00;94.50;;;;;;4947518;29;20102;-65
2022/12/19 12:11:39;;;;;;;0.10;0.10;;;8.00;94.50;;;;;;4946333;29;20039;-64
2022/12/19 12:14:21;;;;;;;0.00;0.00;;;8.00;94.50;;;;;;4946010;28;20459;-64
2022/12/19 12:17:28;;;;;;;0.00;0.00;;;8.10;94.50;;;;;;4948801;29;20841;-64
2022/12/19 12:20:25;;;;;;;0.00;0.00;;;8.10;94.50;;;;;;4858019;29;20143;-64
2022/12/19 12:23:10;;;;;;;0.00;0.00;;;8.10;94.40;;;;;;4947782;28;20104;-65
2022/12/19 12:25:41;;;;;;;0.00;0.00;;;8.20;94.20;;;;;;4948312;28;20117;-64
2022/12/19 12:28:43;;;;;;;0.90;0.90;;;8.20;94.20;;;;;;4948186;29;20039;-64
2022/12/19 12:31:22;;;;;;;0.00;0.00;;;8.20;94.20;;;;;;4948285;28;20063;-64
2022/12/19 12:33:59;;;;;;;0.00;0.00;;;8.20;94.10;;;;;;4949477;29;20051;-65
2022/12/19 12:36:37;;;;;;;0.10;0.10;;;8.20;94.00;;;;;;4948332;29;20488;-64
2022/12/19 12:39:19;;;;;;;0.00;0.00;;;8.20;94.00;;;;;;4946184;28;20052;-64
2022/12/19 12:42:04;;;;;;;0.30;0.30;;;8.20;93.90;;;;;;4946118;29;20059;-64
2022/12/19 12:44:35;;;;;;;0.00;0.00;;;8.20;94.00;;;;;;4945364;29;20676;-64
2022/12/19 12:47:23;;;;;;;0.10;0.10;;;8.30;93.80;;;;;;4944019;28;20117;-65
2022/12/19 12:49:57;;;;;;;0.40;0.40;;;8.30;93.80;;;;;;4946484;29;20492;-65
2022/12/19 12:52:38;;;;;;;0.00;0.00;;;8.30;93.80;;;;;;4947166;28;20563;-65
2022/12/19 12:55:21;;;;;;;0.43;0.43;;;8.30;93.90;;;;;;4944425;29;20082;-65
2022/12/19 12:57:47;;;;;;;0.40;0.40;;;8.30;93.80;;;;;;4948013;29;20134;-65
2022/12/19 13:00:18;;;;;;;0.00;0.00;;;8.30;93.80;;;;;;4949131;29;20460;-65
2022/12/19 13:02:53;;;;;;;0.00;0.00;;;8.30;93.90;;;;;;4949503;28;20051;-66
2022/12/19 13:05:21;;;;;;;0.00;0.00;;;8.30;93.90;;;;;;4947490;29;20074;-65
2022/12/19 13:07:54;;;;;;;0.00;0.00;;;8.30;94.00;;;;;;4948556;29;20044;-67
2022/12/19 13:10:24;;;;;;;0.00;0.00;;;8.40;94.00;;;;;;4945377;28;20047;-66
2022/12/19 13:12:59;;;;;;;0.52;0.52;;;8.30;94.10;;;;;;4944581;28;20106;-65
2022/12/19 13:15:28;;;;;;;0.00;0.00;;;8.30;94.00;;;;;;4946461;29;20039;-66
2022/12/19 13:17:54;;;;;;;0.20;0.20;;;8.30;94.30;;;;;;4946920;28;20126;-66
2022/12/19 13:20:22;;;;;;;0.08;0.08;;;8.30;94.30;;;;;;4943666;29;20126;-64
2022/12/19 13:22:57;;;;;;;0.00;0.00;;;8.40;94.30;;;;;;4946759;28;20054;-65